createdAt,value
2018-12-05T00:02:07.987Z,10.20
2018-12-05T00:04:36.145Z,13.65
2018-12-05T00:07:04.625Z,16.97
2018-12-05T00:09:32.783Z,22.83
2018-12-05T00:12:01.000Z,16.33
2018-12-05T00:14:29.834Z,17.10
2018-12-05T00:16:57.958Z,27.93
2018-12-05T00:19:26.113Z,16.03
2018-12-05T00:21:54.593Z,23.83
2018-12-05T00:24:22.771Z,15.20
2018-12-05T00:26:50.926Z,16.57
2018-12-05T00:29:19.146Z,23.10
2018-12-05T00:31:47.389Z,19.90
2018-12-05T00:34:15.725Z,13.40
2018-12-05T00:36:43.848Z,22.73
2018-12-05T00:39:12.024Z,18.57
2018-12-05T00:41:40.173Z,21.53
2018-12-05T00:44:08.315Z,15.60
2018-12-05T00:46:36.443Z,15.50
2018-12-05T00:49:04.630Z,15.87
2018-12-05T00:51:32.915Z,15.73
2018-12-05T00:54:01.503Z,22.98
2018-12-05T00:56:29.734Z,16.50
2018-12-05T00:58:58.035Z,19.13
2018-12-05T01:01:26.307Z,18.03
2018-12-05T01:03:54.653Z,24.83
2018-12-05T01:06:22.959Z,20.43
2018-12-05T01:08:51.162Z,22.13
2018-12-05T01:11:19.317Z,19.90
2018-12-05T01:13:47.482Z,22.33
2018-12-05T01:16:15.589Z,18.87
2018-12-05T01:18:44.006Z,21.30
2018-12-05T01:21:12.269Z,18.62
2018-12-05T01:23:40.582Z,26.70
2018-12-05T01:26:08.745Z,18.83
2018-12-05T01:28:36.994Z,18.60
2018-12-05T01:31:05.106Z,21.37
2018-12-05T01:33:33.336Z,21.37
2018-12-05T01:36:02.634Z,22.75
2018-12-05T01:38:31.009Z,18.97
2018-12-05T01:40:59.131Z,15.00
2018-12-05T01:43:31.442Z,13.70
2018-12-05T01:45:59.562Z,16.57
2018-12-05T01:48:27.702Z,16.77
2018-12-05T01:50:55.983Z,17.73
2018-12-05T01:53:24.125Z,25.10
2018-12-05T01:55:52.413Z,21.20
2018-12-05T01:58:20.694Z,22.93
2018-12-05T02:00:48.866Z,16.27
2018-12-05T02:03:17.026Z,21.05
2018-12-05T02:05:45.180Z,16.60
2018-12-05T02:08:13.574Z,30.32
2018-12-05T02:10:41.820Z,18.47
2018-12-05T02:13:09.991Z,25.97
2018-12-05T02:15:38.127Z,21.73
2018-12-05T02:18:06.290Z,23.33
2018-12-05T02:20:34.438Z,24.97
2018-12-05T02:23:02.786Z,20.77
2018-12-05T02:25:30.930Z,20.17
2018-12-05T02:27:59.071Z,25.37
2018-12-05T02:30:27.369Z,14.57
2018-12-05T02:32:55.494Z,19.33
2018-12-05T02:35:23.656Z,28.83
2018-12-05T02:37:51.811Z,18.43
2018-12-05T02:40:19.930Z,23.77
2018-12-05T02:42:48.351Z,28.40
2018-12-05T02:45:16.508Z,21.90
2018-12-05T02:47:44.691Z,10.93
2018-12-05T02:50:12.923Z,21.40
2018-12-05T02:52:41.175Z,33.87
2018-12-05T02:55:09.361Z,41.07
2018-12-05T02:57:37.664Z,22.00
2018-12-05T03:00:06.743Z,19.47
2018-12-05T03:02:34.942Z,24.60
2018-12-05T03:05:03.211Z,24.30
2018-12-05T03:07:31.319Z,32.80
2018-12-05T03:09:59.580Z,25.83
2018-12-05T03:12:27.810Z,49.43
2018-12-05T03:14:55.986Z,32.33
2018-12-05T03:17:24.118Z,20.65
2018-12-05T03:19:52.259Z,33.23
2018-12-05T03:22:20.448Z,53.98
2018-12-05T03:24:48.615Z,38.00
2018-12-05T03:27:16.803Z,31.53
2018-12-05T03:29:44.954Z,28.37
2018-12-05T03:32:13.375Z,29.23
2018-12-05T03:34:41.563Z,36.50
2018-12-05T03:37:09.869Z,21.57
2018-12-05T03:39:38.060Z,34.87
2018-12-05T03:42:06.471Z,28.20
2018-12-05T03:44:34.625Z,38.43
2018-12-05T03:47:02.916Z,24.37
2018-12-05T03:49:31.218Z,24.67
2018-12-05T03:51:59.491Z,26.37
2018-12-05T03:54:27.766Z,26.10
2018-12-05T03:56:55.945Z,37.53
2018-12-05T03:59:24.242Z,32.75
2018-12-05T04:01:52.371Z,44.53
2018-12-05T04:04:20.518Z,19.07
2018-12-05T04:06:48.729Z,27.80
2018-12-05T04:09:16.910Z,30.13
2018-12-05T04:11:45.142Z,26.23
2018-12-05T04:14:13.318Z,22.20
2018-12-05T04:16:41.479Z,21.87
2018-12-05T04:19:09.674Z,25.23
2018-12-05T04:21:37.812Z,24.35
2018-12-05T04:24:06.111Z,32.48
2018-12-05T04:26:34.279Z,26.80
2018-12-05T04:29:02.736Z,28.40
2018-12-05T04:31:31.003Z,33.17
2018-12-05T04:33:59.135Z,33.15
2018-12-05T04:36:27.256Z,29.15
2018-12-05T04:38:55.425Z,25.43
2018-12-05T04:41:23.613Z,32.03
2018-12-05T04:43:51.809Z,26.73
2018-12-05T04:46:19.984Z,30.63
2018-12-05T04:48:48.174Z,33.38
2018-12-05T04:51:16.418Z,24.87
2018-12-05T04:53:44.723Z,33.00
2018-12-05T04:56:12.845Z,37.20
2018-12-05T04:58:40.965Z,30.00
2018-12-05T05:01:09.183Z,25.25
2018-12-05T05:03:38.174Z,51.20
2018-12-05T05:06:06.301Z,44.73
2018-12-05T05:08:34.487Z,46.00
2018-12-05T05:11:02.670Z,42.53
2018-12-05T05:13:30.849Z,35.93
2018-12-05T05:15:59.069Z,29.67
2018-12-05T05:18:27.208Z,42.37
2018-12-05T05:20:55.516Z,27.77
2018-12-05T05:23:23.678Z,28.70
2018-12-05T05:25:51.995Z,27.48
2018-12-05T05:28:20.173Z,30.77
2018-12-05T05:30:48.358Z,35.03
2018-12-05T05:33:16.763Z,27.97
2018-12-05T05:35:44.994Z,26.37
2018-12-05T05:38:13.109Z,24.98
2018-12-05T05:40:41.306Z,34.33
2018-12-05T05:43:09.603Z,23.07
2018-12-05T05:45:37.787Z,21.00
2018-12-05T05:48:05.913Z,30.90
2018-12-05T05:50:34.027Z,33.10
2018-12-05T05:53:02.164Z,29.67
2018-12-05T05:55:30.537Z,39.93
2018-12-05T05:57:58.697Z,32.80
2018-12-05T06:00:26.910Z,36.80
2018-12-05T06:02:55.103Z,34.15
2018-12-05T06:05:23.493Z,33.77
2018-12-05T06:07:51.637Z,24.70
2018-12-05T06:10:19.791Z,31.93
2018-12-05T06:12:47.922Z,36.13
2018-12-05T06:15:16.242Z,20.33
2018-12-05T06:17:44.390Z,28.00
2018-12-05T06:20:12.533Z,29.48
2018-12-05T06:22:40.865Z,29.67
2018-12-05T06:25:09.172Z,31.53
2018-12-05T06:27:37.297Z,32.47
2018-12-05T06:30:06.456Z,27.40
2018-12-05T06:32:34.628Z,36.73
2018-12-05T06:35:02.946Z,39.43
2018-12-05T06:37:31.092Z,38.20
2018-12-05T06:39:59.317Z,40.27
2018-12-05T06:42:27.438Z,42.13
2018-12-05T06:44:55.554Z,36.57
2018-12-05T06:47:23.676Z,32.33
2018-12-05T06:49:51.833Z,38.90
2018-12-05T06:52:20.054Z,37.03
2018-12-05T06:54:48.186Z,34.33
2018-12-05T06:57:16.357Z,34.73
2018-12-05T06:59:44.450Z,34.40
2018-12-05T07:02:12.717Z,46.17
2018-12-05T07:04:40.865Z,43.60
2018-12-05T07:07:09.046Z,38.13
2018-12-05T07:09:37.201Z,38.30
2018-12-05T07:12:05.409Z,32.57
2018-12-05T07:14:33.581Z,42.78
2018-12-05T07:17:01.699Z,37.97
2018-12-05T07:19:29.847Z,38.23
2018-12-05T07:21:58.058Z,38.97
2018-12-05T07:24:26.234Z,29.23
2018-12-05T07:26:54.472Z,36.23
2018-12-05T07:29:22.602Z,22.93
2018-12-05T07:31:50.730Z,28.70
2018-12-05T07:34:18.870Z,20.87
2018-12-05T07:36:47.062Z,37.07
2018-12-05T07:39:15.239Z,27.50
2018-12-05T07:41:43.822Z,26.52
2018-12-05T07:44:12.112Z,29.40
2018-12-05T07:46:40.238Z,25.77
2018-12-05T07:49:08.534Z,21.17
2018-12-05T07:51:36.691Z,26.97
2018-12-05T07:54:05.085Z,18.50
2018-12-05T07:56:33.278Z,24.63
2018-12-05T07:59:01.442Z,24.83
2018-12-05T08:01:29.637Z,24.70
2018-12-05T08:03:57.811Z,28.20
2018-12-05T08:06:26.295Z,26.77
2018-12-05T08:08:54.522Z,27.75
2018-12-05T08:11:22.741Z,29.00
2018-12-05T08:13:50.983Z,27.77
2018-12-05T08:16:19.161Z,35.30
2018-12-05T08:18:47.269Z,34.47
2018-12-05T08:21:15.486Z,37.30
2018-12-05T08:23:43.612Z,29.93
2018-12-05T08:26:11.750Z,42.80
2018-12-05T08:28:39.974Z,37.60
2018-12-05T08:31:08.215Z,38.77
2018-12-05T08:33:36.330Z,33.73
2018-12-05T08:36:04.690Z,37.37
2018-12-05T08:38:32.948Z,32.40
2018-12-05T08:41:01.123Z,29.93
2018-12-05T08:43:29.254Z,33.13
2018-12-05T08:45:57.467Z,36.73
2018-12-05T08:48:25.582Z,36.17
2018-12-05T08:50:53.772Z,24.67
2018-12-05T08:53:22.157Z,27.73
2018-12-05T08:55:50.334Z,25.93
2018-12-05T08:58:18.450Z,31.15
2018-12-05T09:00:46.913Z,29.67
2018-12-05T09:03:15.137Z,27.27
2018-12-05T09:05:43.243Z,32.07
2018-12-05T09:08:11.378Z,30.67
2018-12-05T09:10:39.478Z,30.97
2018-12-05T09:13:07.764Z,26.57
2018-12-05T09:15:35.878Z,34.00
2018-12-05T09:18:04.032Z,19.33
2018-12-05T09:20:32.245Z,23.97
2018-12-05T09:23:00.386Z,31.63
2018-12-05T09:25:28.574Z,21.37
2018-12-05T09:27:57.095Z,28.53
2018-12-05T09:30:25.324Z,30.63
2018-12-05T09:32:53.459Z,29.70
2018-12-05T09:35:21.580Z,25.10
2018-12-05T09:37:49.712Z,22.20
2018-12-05T09:40:18.498Z,19.20
2018-12-05T09:42:46.704Z,17.30
2018-12-05T09:45:15.691Z,20.70
2018-12-05T09:47:43.811Z,19.07
2018-12-05T09:50:11.974Z,18.90
2018-12-05T09:52:40.303Z,23.80
2018-12-05T09:55:08.733Z,12.20
2018-12-05T09:57:36.921Z,19.07
2018-12-05T10:00:06.107Z,15.53
2018-12-05T10:02:34.246Z,19.80
2018-12-05T10:05:02.464Z,18.47
2018-12-05T10:07:30.574Z,20.23
2018-12-05T10:09:58.786Z,20.13
2018-12-05T10:12:26.944Z,21.77
2018-12-05T10:15:01.609Z,19.03
2018-12-05T10:17:29.782Z,23.27
2018-12-05T10:19:58.043Z,20.43
2018-12-05T10:22:26.192Z,24.20
2018-12-05T10:24:54.389Z,23.70
2018-12-05T10:27:22.541Z,22.83
2018-12-05T10:29:50.714Z,19.60
2018-12-05T10:32:18.882Z,18.70
2018-12-05T10:34:47.014Z,19.23
2018-12-05T10:37:15.174Z,21.40
2018-12-05T10:39:43.330Z,17.53
2018-12-05T10:42:11.657Z,18.07
2018-12-05T10:44:39.823Z,24.45
2018-12-05T10:47:07.962Z,19.50
2018-12-05T10:49:36.174Z,21.45
2018-12-05T10:52:04.414Z,26.87
2018-12-05T10:54:32.591Z,20.90
2018-12-05T10:57:00.864Z,29.53
2018-12-05T10:59:29.146Z,25.93
2018-12-05T11:02:02.788Z,20.07
2018-12-05T11:04:36.250Z,23.37
2018-12-05T11:07:11.941Z,21.60
2018-12-05T11:09:45.754Z,22.30
2018-12-05T11:12:19.486Z,18.30
2018-12-05T11:14:53.390Z,18.47
2018-12-05T11:17:27.543Z,16.02
2018-12-05T11:19:59.884Z,21.90
2018-12-05T11:22:33.503Z,18.20
2018-12-05T11:25:04.473Z,17.47
2018-12-05T11:27:32.662Z,22.95
2018-12-05T11:30:00.824Z,21.20
2018-12-05T11:32:28.967Z,21.03
2018-12-05T11:34:57.186Z,23.73
2018-12-05T11:37:25.401Z,23.00
2018-12-05T11:39:53.697Z,22.10
2018-12-05T11:42:21.832Z,18.37
2018-12-05T11:44:49.982Z,23.67
2018-12-05T11:47:18.140Z,22.63
2018-12-05T11:49:46.349Z,18.03
2018-12-05T11:52:14.493Z,23.63
2018-12-05T11:54:42.945Z,21.70
2018-12-05T11:57:11.178Z,21.73
2018-12-05T11:59:39.506Z,22.83
2018-12-05T12:02:07.715Z,22.40
2018-12-05T12:04:35.875Z,18.83
2018-12-05T12:07:04.251Z,22.30
2018-12-05T12:09:32.442Z,22.30
2018-12-05T12:12:00.664Z,14.53
2018-12-05T12:14:28.919Z,17.42
2018-12-05T12:16:57.047Z,18.43
2018-12-05T12:19:25.429Z,19.43
2018-12-05T12:21:53.667Z,14.37
2018-12-05T12:24:34.877Z,20.17
2018-12-05T12:27:07.771Z,18.68
2018-12-05T12:29:36.134Z,17.40
2018-12-05T12:32:04.333Z,20.30
2018-12-05T12:34:32.483Z,17.50
2018-12-05T12:37:00.695Z,16.50
2018-12-05T12:39:28.918Z,15.10
2018-12-05T12:41:57.172Z,21.80
2018-12-05T12:44:26.078Z,22.48
2018-12-05T12:46:54.290Z,15.10
2018-12-05T12:49:22.451Z,18.90
2018-12-05T12:51:50.636Z,21.20
2018-12-05T12:54:18.946Z,17.67
2018-12-05T12:56:47.073Z,20.73
2018-12-05T12:59:15.210Z,14.73
2018-12-05T13:01:43.343Z,14.63
2018-12-05T13:04:11.598Z,18.77
2018-12-05T13:06:39.730Z,19.77
2018-12-05T13:09:08.286Z,20.20
2018-12-05T13:11:36.442Z,13.40
2018-12-05T13:14:04.950Z,13.73
2018-12-05T13:16:33.090Z,20.23
2018-12-05T13:19:01.242Z,18.50
2018-12-05T13:21:29.384Z,15.63
2018-12-05T13:23:57.888Z,16.10
2018-12-05T13:26:26.174Z,15.17
2018-12-05T13:28:54.388Z,19.03
2018-12-05T13:31:22.551Z,14.30
2018-12-05T13:33:50.723Z,17.97
2018-12-05T13:36:19.011Z,18.60
2018-12-05T13:38:47.160Z,15.63
2018-12-05T13:41:15.310Z,14.33
2018-12-05T13:43:43.485Z,20.00
2018-12-05T13:46:11.614Z,14.68
2018-12-05T13:48:39.855Z,13.40
2018-12-05T13:51:08.231Z,15.30
2018-12-05T13:53:36.406Z,14.27
2018-12-05T13:56:04.611Z,13.67
2018-12-05T13:58:32.830Z,15.50
2018-12-05T14:01:01.048Z,13.40
2018-12-05T14:03:29.460Z,12.00
2018-12-05T14:05:57.606Z,13.90
2018-12-05T14:08:25.839Z,16.70
2018-12-05T14:10:53.983Z,16.40
2018-12-05T14:13:22.110Z,22.53
2018-12-05T14:15:50.271Z,15.07
2018-12-05T14:18:18.436Z,18.77
2018-12-05T14:20:46.670Z,16.60
2018-12-05T14:23:14.866Z,17.97
2018-12-05T14:25:43.167Z,14.30
2018-12-05T14:28:11.341Z,20.97
2018-12-05T14:30:39.535Z,13.30
2018-12-05T14:33:07.693Z,16.57
2018-12-05T14:35:35.967Z,20.93
2018-12-05T14:38:04.210Z,13.87
2018-12-05T14:40:33.486Z,17.75
2018-12-05T14:43:01.660Z,16.93
2018-12-05T14:45:29.814Z,19.50
2018-12-05T14:47:57.957Z,19.83
2018-12-05T14:50:26.279Z,21.10
2018-12-05T14:52:54.560Z,18.27
2018-12-05T14:55:22.721Z,26.47
2018-12-05T14:57:50.854Z,22.80
2018-12-05T15:00:18.984Z,22.03
2018-12-05T15:02:47.238Z,17.17
2018-12-05T15:05:15.378Z,16.23
2018-12-05T15:07:43.573Z,19.50
2018-12-05T15:10:11.802Z,19.27
2018-12-05T15:12:40.117Z,17.42
2018-12-05T15:15:08.504Z,18.13
2018-12-05T15:17:36.731Z,22.10
2018-12-05T15:20:05.180Z,14.23
2018-12-05T15:22:34.398Z,23.35
2018-12-05T15:25:02.627Z,23.47
2018-12-05T15:27:30.750Z,17.77
2018-12-05T15:29:58.927Z,17.83
2018-12-05T15:32:27.077Z,23.80
2018-12-05T15:34:55.231Z,17.50
2018-12-05T15:37:23.407Z,15.00
2018-12-05T15:39:51.549Z,17.23
2018-12-05T15:42:19.695Z,15.47
2018-12-05T15:44:47.945Z,17.60
2018-12-05T15:47:16.114Z,18.27
2018-12-05T15:49:44.265Z,14.50
2018-12-05T15:52:12.410Z,24.20
2018-12-05T15:54:41.179Z,20.07
2018-12-05T15:57:10.114Z,16.50
2018-12-05T15:59:38.661Z,14.43
2018-12-05T16:02:06.799Z,19.37
2018-12-05T16:04:35.598Z,14.33
2018-12-05T16:07:03.854Z,12.73
2018-12-05T16:09:31.986Z,12.47
2018-12-05T16:12:00.275Z,13.13
2018-12-05T16:14:28.423Z,13.97
2018-12-05T16:16:56.578Z,21.40
2018-12-05T16:19:24.780Z,14.43
2018-12-05T16:21:52.922Z,19.33
2018-12-05T16:24:21.085Z,14.40
2018-12-05T16:26:49.262Z,16.02
2018-12-05T16:29:17.397Z,14.47
2018-12-05T16:31:45.544Z,16.90
2018-12-05T16:34:13.864Z,13.63
2018-12-05T16:36:41.995Z,14.40
2018-12-05T16:39:10.210Z,16.00
2018-12-05T16:41:38.899Z,12.00
2018-12-05T16:44:12.861Z,14.63
2018-12-05T16:46:38.454Z,12.07
2018-12-05T16:49:06.769Z,21.40
2018-12-05T16:51:34.908Z,17.20
2018-12-05T16:54:03.182Z,13.35
2018-12-05T16:56:31.344Z,19.70
2018-12-05T16:58:59.503Z,11.30
2018-12-05T17:01:27.653Z,15.00
2018-12-05T17:03:55.803Z,13.37
2018-12-05T17:06:23.938Z,19.23
2018-12-05T17:08:52.103Z,15.63
2018-12-05T17:11:20.445Z,17.77
2018-12-05T17:13:48.582Z,10.98
2018-12-05T17:16:18.191Z,17.92
2018-12-05T17:18:46.610Z,14.03
2018-12-05T17:21:14.891Z,16.60
2018-12-05T17:23:43.022Z,16.97
2018-12-05T17:26:11.338Z,14.73
2018-12-05T17:28:40.483Z,12.58
2018-12-05T17:31:08.623Z,14.80
2018-12-05T17:33:36.868Z,21.60
2018-12-05T17:36:05.086Z,18.73
2018-12-05T17:38:33.246Z,19.40
2018-12-05T17:41:01.473Z,17.47
2018-12-05T17:43:29.635Z,14.60
2018-12-05T17:45:57.791Z,21.17
2018-12-05T17:48:25.945Z,23.22
2018-12-05T17:50:54.099Z,14.13
2018-12-05T17:53:22.327Z,16.87
2018-12-05T17:55:50.670Z,18.30
2018-12-05T17:58:19.015Z,13.53
2018-12-05T18:00:47.170Z,15.93
2018-12-05T18:03:15.298Z,17.40
2018-12-05T18:05:43.478Z,22.62
2018-12-05T18:08:11.771Z,22.42
2018-12-05T18:10:39.937Z,16.60
2018-12-05T18:13:08.134Z,22.10
2018-12-05T18:15:36.322Z,15.70
2018-12-05T18:18:04.630Z,20.70
2018-12-05T18:20:32.909Z,18.00
2018-12-05T18:23:01.185Z,19.95
2018-12-05T18:25:29.409Z,18.03
2018-12-05T18:27:57.591Z,19.77
2018-12-05T18:30:25.742Z,16.63
2018-12-05T18:32:53.924Z,14.00
2018-12-05T18:35:22.134Z,12.20
2018-12-05T18:37:50.281Z,15.63
2018-12-05T18:40:18.430Z,14.37
2018-12-05T18:42:46.786Z,17.70
2018-12-05T18:45:15.022Z,16.55
2018-12-05T18:47:43.261Z,16.57
2018-12-05T18:50:11.518Z,18.50
2018-12-05T18:52:39.722Z,17.57
2018-12-05T18:55:07.950Z,19.87
2018-12-05T18:57:36.199Z,17.80
2018-12-05T19:00:06.088Z,17.00
2018-12-05T19:02:34.290Z,13.17
2018-12-05T19:05:02.735Z,23.87
2018-12-05T19:07:30.896Z,18.20
2018-12-05T19:09:59.066Z,19.30
2018-12-05T19:12:27.365Z,17.33
2018-12-05T19:14:55.586Z,16.27
2018-12-05T19:17:23.738Z,15.27
2018-12-05T19:19:51.908Z,15.83
2018-12-05T19:22:20.064Z,17.52
2018-12-05T19:24:48.289Z,18.37
2018-12-05T19:27:16.594Z,14.90
2018-12-05T19:29:45.727Z,23.30
2018-12-05T19:32:13.998Z,16.00
2018-12-05T19:34:42.121Z,14.50
2018-12-05T19:37:10.338Z,16.10
2018-12-05T19:39:38.526Z,18.97
2018-12-05T19:42:06.822Z,13.90
2018-12-05T19:44:34.940Z,18.30
2018-12-05T19:47:03.099Z,20.80
2018-12-05T19:49:31.291Z,18.60
2018-12-05T19:51:59.776Z,21.70
2018-12-05T19:54:28.151Z,19.63
2018-12-05T19:56:56.429Z,17.67
2018-12-05T19:59:24.616Z,22.77
2018-12-05T20:01:59.571Z,20.08
2018-12-05T20:04:27.706Z,13.60
2018-12-05T20:06:55.867Z,18.23
2018-12-05T20:09:23.998Z,21.93
2018-12-05T20:11:52.353Z,19.37
2018-12-05T20:14:25.867Z,16.00
2018-12-05T20:16:54.090Z,18.93
2018-12-05T20:19:22.220Z,14.43
2018-12-05T20:21:50.517Z,16.27
2018-12-05T20:24:18.645Z,25.57
2018-12-05T20:26:46.972Z,16.42
2018-12-05T20:29:15.097Z,20.27
2018-12-05T20:31:43.367Z,14.00
2018-12-05T20:34:11.522Z,18.13
2018-12-05T20:36:39.649Z,15.07
2018-12-05T20:39:10.517Z,19.90
2018-12-05T20:41:38.745Z,22.07
2018-12-05T20:44:07.087Z,15.47
2018-12-05T20:46:35.403Z,15.47
2018-12-05T20:49:03.742Z,22.30
2018-12-05T20:51:32.056Z,16.30
2018-12-05T20:54:00.338Z,15.93
2018-12-05T20:56:29.086Z,13.20
2018-12-05T20:58:57.280Z,22.10
2018-12-05T21:01:26.051Z,15.50
2018-12-05T21:03:54.271Z,16.27
2018-12-05T21:06:22.503Z,19.73
2018-12-05T21:08:50.734Z,15.10
2018-12-05T21:11:20.058Z,18.10
2018-12-05T21:13:48.353Z,14.77
2018-12-05T21:16:16.510Z,17.87
2018-12-05T21:18:44.722Z,21.20
2018-12-05T21:21:12.978Z,21.57
2018-12-05T21:23:41.151Z,15.53
2018-12-05T21:26:09.310Z,24.32
2018-12-05T21:28:37.734Z,14.90
2018-12-05T21:31:06.070Z,16.67
2018-12-05T21:33:34.290Z,21.17
2018-12-05T21:36:02.646Z,18.93
2018-12-05T21:38:31.025Z,15.80
2018-12-05T21:40:59.419Z,16.67
2018-12-05T21:43:27.578Z,15.10
2018-12-05T21:45:55.786Z,18.20
2018-12-05T21:48:24.066Z,13.00
2018-12-05T21:50:52.220Z,14.60
2018-12-05T21:53:20.429Z,13.93
2018-12-05T21:55:48.570Z,16.40
2018-12-05T21:58:16.726Z,13.30
2018-12-05T22:03:17.182Z,15.38
2018-12-05T22:05:45.352Z,15.73
2018-12-05T22:08:13.850Z,14.10
2018-12-05T22:10:42.083Z,13.13
2018-12-05T22:13:10.271Z,12.30
2018-12-05T22:15:38.489Z,15.03
2018-12-05T22:18:06.742Z,18.50
2018-12-05T22:20:34.987Z,16.73
2018-12-05T22:23:03.158Z,18.13
2018-12-05T22:25:31.278Z,18.80
2018-12-05T22:27:59.460Z,18.27
2018-12-05T22:30:27.845Z,13.45
2018-12-05T22:32:56.025Z,8.90
2018-12-05T22:35:24.143Z,13.23
2018-12-05T22:37:52.278Z,15.88
2018-12-05T22:40:20.403Z,12.10
2018-12-05T22:42:48.580Z,12.37
2018-12-05T22:45:16.741Z,12.27
2018-12-05T22:47:44.954Z,19.63
2018-12-05T22:50:13.086Z,16.63
2018-12-05T22:52:41.260Z,20.53
2018-12-05T22:55:09.401Z,21.83
2018-12-05T22:57:37.547Z,21.17
2018-12-05T23:00:10.862Z,19.87
2018-12-05T23:02:39.085Z,16.10
2018-12-05T23:05:07.321Z,22.23
2018-12-05T23:07:35.570Z,17.43
2018-12-05T23:10:04.377Z,20.83
2018-12-05T23:12:32.528Z,15.43
2018-12-05T23:15:00.687Z,20.35
2018-12-05T23:17:28.867Z,18.17
2018-12-05T23:19:57.013Z,18.10
2018-12-05T23:22:25.250Z,18.70
2018-12-05T23:24:53.475Z,15.90
2018-12-05T23:27:21.839Z,15.27
2018-12-05T23:29:50.252Z,17.33
2018-12-05T23:32:18.419Z,16.63
2018-12-05T23:34:46.619Z,16.20
2018-12-05T23:37:14.771Z,19.73
2018-12-05T23:39:43.485Z,25.03
2018-12-05T23:42:11.633Z,24.47
2018-12-05T23:44:39.795Z,22.00
2018-12-05T23:47:07.965Z,19.67
2018-12-05T23:49:36.260Z,17.23
2018-12-05T23:52:04.421Z,18.07
2018-12-05T23:54:32.614Z,16.05
2018-12-05T23:57:00.791Z,19.93
2018-12-05T23:59:28.944Z,20.70
